createdAt,value
2023-03-26T00:02:18.653Z,6.21
2023-03-26T00:06:12.767Z,6.19
2023-03-26T00:09:53.435Z,6.17
2023-03-26T00:13:32.595Z,6.18
2023-03-26T00:16:49.601Z,6.21
2023-03-26T00:20:30.351Z,6.25
2023-03-26T00:24:08.251Z,6.31
2023-03-26T00:27:45.501Z,6.37
2023-03-26T00:31:45.395Z,6.39
2023-03-26T00:35:17.590Z,6.40
2023-03-26T00:38:39.063Z,6.40
2023-03-26T00:42:16.529Z,6.40
2023-03-26T00:45:54.625Z,6.40
2023-03-26T00:49:30.599Z,6.40
2023-03-26T00:53:06.052Z,6.39
2023-03-26T00:56:44.009Z,6.38
2023-03-26T01:00:28.936Z,6.39
2023-03-26T01:04:31.078Z,6.39
2023-03-26T01:07:36.979Z,6.40
2023-03-26T01:11:35.356Z,6.41
2023-03-26T01:14:55.155Z,6.42
2023-03-26T01:18:34.319Z,6.42
2023-03-26T01:22:11.972Z,6.39
2023-03-26T01:25:54.838Z,6.36
2023-03-26T01:29:48.255Z,6.31
2023-03-26T01:33:20.429Z,6.27
2023-03-26T01:36:50.668Z,6.23
2023-03-26T01:40:43.274Z,6.20
2023-03-26T01:44:51.608Z,6.20
2023-03-26T01:47:56.157Z,6.15
2023-03-26T01:51:34.888Z,6.08
2023-03-26T01:55:14.350Z,6.01
2023-03-26T01:59:21.464Z,5.94
2023-03-26T02:03:05.174Z,5.93
2023-03-26T02:06:19.744Z,5.94
2023-03-26T02:09:49.986Z,5.97
2023-03-26T02:13:45.244Z,6.00
2023-03-26T02:17:01.295Z,6.00
2023-03-26T02:20:38.848Z,5.98
2023-03-26T02:24:39.876Z,5.93
2023-03-26T02:27:54.553Z,5.88
2023-03-26T02:31:50.785Z,5.89
2023-03-26T02:35:10.227Z,5.91
2023-03-26T02:38:47.105Z,5.93
2023-03-26T02:42:44.930Z,5.98
2023-03-26T02:46:21.583Z,6.00
2023-03-26T02:49:40.210Z,5.99
2023-03-26T02:53:17.879Z,5.98
2023-03-26T02:57:15.677Z,6.01
2023-03-26T03:00:37.702Z,6.04
2023-03-26T03:04:33.944Z,6.10
2023-03-26T03:07:58.265Z,6.08
2023-03-26T03:11:49.655Z,6.08
2023-03-26T03:15:30.499Z,6.10
2023-03-26T03:18:47.588Z,6.07
2023-03-26T03:22:23.624Z,6.08
2023-03-26T03:26:02.826Z,6.09
2023-03-26T03:29:58.629Z,6.12
2023-03-26T03:33:42.353Z,6.16
2023-03-26T03:36:58.862Z,6.20
2023-03-26T03:40:36.674Z,6.19
2023-03-26T03:44:14.359Z,6.14
2023-03-26T03:48:10.788Z,6.08
2023-03-26T03:51:30.601Z,6.00
2023-03-26T03:55:07.637Z,5.99
2023-03-26T04:12:16.600Z,6.31
2023-03-26T04:15:54.895Z,6.27
2023-03-26T04:19:54.320Z,6.24
2023-03-26T04:23:14.199Z,6.22
2023-03-26T04:26:48.031Z,6.21
2023-03-26T04:30:24.736Z,6.16
2023-03-26T04:34:24.408Z,6.11
2023-03-26T04:37:49.826Z,6.04
2023-03-26T04:41:27.456Z,6.03
2023-03-26T04:45:03.076Z,6.01
2023-03-26T04:48:38.879Z,6.01
2023-03-26T04:52:36.514Z,6.04
2023-03-26T04:56:03.631Z,6.05
2023-03-26T04:59:36.150Z,6.01
2023-03-26T05:03:13.522Z,5.94
2023-03-26T05:06:50.787Z,5.91
2023-03-26T05:10:47.063Z,5.89
2023-03-26T05:14:06.028Z,5.92
2023-03-26T05:17:44.157Z,5.98
2023-03-26T05:21:22.505Z,6.03
2023-03-26T05:24:58.987Z,6.08
2023-03-26T05:28:37.130Z,6.07
2023-03-26T05:32:14.486Z,6.05
2023-03-26T05:36:12.547Z,6.06
2023-03-26T05:39:30.121Z,6.02
2023-03-26T05:43:29.400Z,6.05
2023-03-26T05:46:52.943Z,6.08
2023-03-26T05:50:51.516Z,6.09
2023-03-26T05:54:26.540Z,6.10
2023-03-26T05:58:08.889Z,6.08
2023-03-26T06:01:29.870Z,6.05
2023-03-26T06:05:10.138Z,6.04
2023-03-26T06:09:06.570Z,6.16
2023-03-26T06:12:24.374Z,6.32
2023-03-26T06:16:00.853Z,6.41
2023-03-26T06:19:38.509Z,6.46
2023-03-26T06:23:34.957Z,6.49
2023-03-26T06:27:12.646Z,6.56
2023-03-26T06:30:53.959Z,6.64
2023-03-26T06:34:31.448Z,6.74
2023-03-26T06:38:27.943Z,6.91
2023-03-26T06:41:47.334Z,6.98
2023-03-26T06:45:45.128Z,7.01
2023-03-26T06:49:25.443Z,7.01
2023-03-26T06:53:04.299Z,7.01
2023-03-26T06:56:46.178Z,7.06
2023-03-26T07:00:08.702Z,7.13
2023-03-26T07:03:42.582Z,7.22
2023-03-26T07:07:21.831Z,7.22
2023-03-26T07:10:58.055Z,7.27
2023-03-26T07:14:38.315Z,7.32
2023-03-26T07:18:32.271Z,7.34
2023-03-26T07:21:51.527Z,7.34
2023-03-26T07:25:32.012Z,7.22
2023-03-26T07:29:44.138Z,7.10
2023-03-26T07:33:44.558Z,6.97
2023-03-26T07:37:20.130Z,6.79
2023-03-26T07:40:53.328Z,6.61
2023-03-26T07:44:29.869Z,6.49
2023-03-26T07:47:59.022Z,6.43
2023-03-26T07:51:36.377Z,6.37
2023-03-26T07:55:15.695Z,6.41
2023-03-26T07:58:57.984Z,6.54
2023-03-26T08:02:41.272Z,6.66
2023-03-26T08:06:35.271Z,6.78
2023-03-26T08:10:17.480Z,6.89
2023-03-26T08:13:53.888Z,7.06
2023-03-26T08:17:36.246Z,7.19
2023-03-26T08:21:22.974Z,7.41
2023-03-26T08:25:17.106Z,7.58
2023-03-26T08:28:25.638Z,7.72
2023-03-26T08:31:58.187Z,7.83
2023-03-26T08:35:35.441Z,7.87
2023-03-26T08:39:14.404Z,7.91
2023-03-26T08:43:20.876Z,7.90
2023-03-26T08:47:28.303Z,7.93
2023-03-26T08:50:42.166Z,8.06
2023-03-26T08:54:41.424Z,8.21
2023-03-26T08:58:20.970Z,8.33
2023-03-26T09:01:45.567Z,8.48
2023-03-26T09:05:36.275Z,8.68
2023-03-26T09:09:07.664Z,8.92
2023-03-26T09:12:54.845Z,9.07
2023-03-26T09:16:22.275Z,9.20
2023-03-26T09:20:15.378Z,9.22
2023-03-26T09:23:53.974Z,9.23
2023-03-26T09:27:15.678Z,9.22
2023-03-26T09:31:07.964Z,9.27
2023-03-26T09:34:50.677Z,9.47
2023-03-26T09:38:41.395Z,9.63
2023-03-26T09:42:00.647Z,9.55
2023-03-26T09:46:15.575Z,9.51
2023-03-26T09:49:43.691Z,9.61
2023-03-26T09:53:37.000Z,9.62
2023-03-26T09:57:25.495Z,9.56
2023-03-26T10:00:47.342Z,9.50
2023-03-26T10:04:13.300Z,9.50
2023-03-26T10:08:04.850Z,9.41
2023-03-26T10:12:13.193Z,9.29
2023-03-26T10:15:18.715Z,9.21
2023-03-26T10:19:28.873Z,9.13
2023-03-26T10:23:18.046Z,9.14
2023-03-26T10:26:39.568Z,9.20
2023-03-26T10:30:33.872Z,9.33
2023-03-26T10:34:28.762Z,9.47
2023-03-26T10:37:46.001Z,9.62
2023-03-26T10:41:35.241Z,9.73
2023-03-26T10:45:13.582Z,9.73
2023-03-26T10:48:42.080Z,9.75
2023-03-26T10:52:52.216Z,9.72
2023-03-26T10:56:27.726Z,9.64
2023-03-26T10:59:33.360Z,9.61
2023-03-26T11:03:53.600Z,9.49
2023-03-26T11:07:26.441Z,9.41
2023-03-26T11:10:48.790Z,9.39
2023-03-26T11:14:40.354Z,9.35
2023-03-26T11:18:12.082Z,9.39
2023-03-26T11:21:49.033Z,9.37
2023-03-26T11:25:36.116Z,9.35
2023-03-26T11:29:05.304Z,9.38
2023-03-26T11:32:47.814Z,9.28
2023-03-26T11:36:06.007Z,9.30
2023-03-26T11:39:48.734Z,9.42
2023-03-26T11:43:36.338Z,9.53
2023-03-26T11:46:58.878Z,9.79
2023-03-26T11:50:55.401Z,10.03
2023-03-26T11:54:10.879Z,10.13
2023-03-26T11:57:53.795Z,10.24
2023-03-26T12:01:40.505Z,10.34
2023-03-26T12:05:12.922Z,10.35
2023-03-26T12:08:39.943Z,10.35
2023-03-26T12:12:21.668Z,10.33
2023-03-26T12:15:58.926Z,10.23
2023-03-26T12:19:42.220Z,10.30
2023-03-26T12:23:55.729Z,10.51
2023-03-26T12:27:20.015Z,10.69
2023-03-26T12:31:03.943Z,10.74
2023-03-26T12:34:19.254Z,10.78
2023-03-26T12:37:51.816Z,10.77
2023-03-26T12:44:43.489Z,10.87
2023-03-26T12:45:13.724Z,11.22
2023-03-26T12:49:05.819Z,11.62
2023-03-26T12:52:53.363Z,11.91
2023-03-26T12:56:36.550Z,11.99
2023-03-26T13:00:24.716Z,11.93
2023-03-26T13:04:05.295Z,11.73
2023-03-26T13:07:41.653Z,11.91
2023-03-26T13:11:14.083Z,12.07
2023-03-26T13:14:47.891Z,12.07
2023-03-26T13:18:23.918Z,12.15
2023-03-26T13:21:53.655Z,12.16
2023-03-26T13:25:54.106Z,12.13
2023-03-26T13:29:17.544Z,12.59
2023-03-26T13:32:45.417Z,12.69
2023-03-26T13:36:24.470Z,12.52
2023-03-26T13:40:25.435Z,12.32
2023-03-26T13:43:50.057Z,12.05
2023-03-26T13:47:19.777Z,11.74
2023-03-26T13:51:25.487Z,11.53
2023-03-26T13:55:02.756Z,11.35
2023-03-26T13:58:08.917Z,10.94
2023-03-26T14:01:56.013Z,10.76
2023-03-26T14:05:27.764Z,10.84
2023-03-26T14:09:47.657Z,10.84
2023-03-26T14:13:00.331Z,10.70
2023-03-26T14:16:39.749Z,10.56
2023-03-26T14:21:10.081Z,10.67
2023-03-26T14:24:20.890Z,10.64
2023-03-26T14:28:16.193Z,10.53
2023-03-26T14:31:38.988Z,10.51
2023-03-26T14:35:35.195Z,10.45
2023-03-26T14:38:53.370Z,10.40
2023-03-26T14:42:43.052Z,10.42
2023-03-26T14:46:37.062Z,10.40
2023-03-26T14:50:26.652Z,10.39
2023-03-26T14:54:00.594Z,10.38
2023-03-26T14:57:46.374Z,10.37
2023-03-26T15:01:21.064Z,10.36
2023-03-26T15:04:48.435Z,10.31
2023-03-26T15:08:21.655Z,10.30
2023-03-26T15:12:21.219Z,10.27
2023-03-26T15:16:00.718Z,10.34
2023-03-26T15:19:41.519Z,10.39
2023-03-26T15:23:03.608Z,10.46
2023-03-26T15:27:18.766Z,10.54
2023-03-26T15:31:09.092Z,10.63
2023-03-26T15:34:35.890Z,10.73
2023-03-26T15:38:14.544Z,10.81
2023-03-26T15:41:41.525Z,10.87
2023-03-26T15:45:27.597Z,10.88
2023-03-26T15:49:18.268Z,10.81
2023-03-26T15:52:57.060Z,10.64
2023-03-26T15:56:32.387Z,10.58
2023-03-26T16:00:16.410Z,10.49
2023-03-26T16:03:44.208Z,10.44
2023-03-26T16:07:11.159Z,10.39
2023-03-26T16:10:59.904Z,10.31
2023-03-26T16:14:39.938Z,10.30
2023-03-26T16:18:10.256Z,10.27
2023-03-26T16:21:33.005Z,10.25
2023-03-26T16:25:52.676Z,10.24
2023-03-26T16:29:14.272Z,10.19
2023-03-26T16:33:15.422Z,10.05
2023-03-26T16:36:18.439Z,10.03
2023-03-26T16:40:22.400Z,9.98
2023-03-26T16:44:14.894Z,9.85
2023-03-26T16:47:54.176Z,9.78
2023-03-26T16:51:25.704Z,9.71
2023-03-26T16:54:57.806Z,9.58
2023-03-26T16:58:44.276Z,9.46
2023-03-26T17:02:14.311Z,9.26
2023-03-26T17:05:53.248Z,9.04
2023-03-26T17:09:23.580Z,8.77
2023-03-26T17:13:07.847Z,8.39
2023-03-26T17:16:49.408Z,8.22
2023-03-26T17:20:37.688Z,7.87
2023-03-26T17:24:06.309Z,7.76
2023-03-26T17:27:59.312Z,7.57
2023-03-26T17:31:10.868Z,7.23
2023-03-26T17:34:47.662Z,7.04
2023-03-26T17:38:17.153Z,6.95
2023-03-26T17:42:13.135Z,6.65
2023-03-26T17:46:03.157Z,6.54
2023-03-26T17:49:35.869Z,6.26
2023-03-26T17:53:01.131Z,6.13
2023-03-26T17:56:32.332Z,6.02
2023-03-26T18:00:07.572Z,5.85
2023-03-26T18:04:12.311Z,5.86
2023-03-26T18:08:02.097Z,5.98
2023-03-26T18:11:31.653Z,5.86
2023-03-26T18:15:48.219Z,5.93
2023-03-26T18:19:18.437Z,6.11
2023-03-26T18:22:53.142Z,6.21
2023-03-26T18:26:33.885Z,6.17
2023-03-26T18:30:25.940Z,6.24
2023-03-26T18:33:45.421Z,6.28
2023-03-26T18:37:24.049Z,6.31
2023-03-26T18:40:46.367Z,6.22
2023-03-26T18:44:40.799Z,6.19
2023-03-26T18:48:06.201Z,6.09
2023-03-26T18:51:50.124Z,6.05
2023-03-26T18:55:15.466Z,6.02
2023-03-26T18:58:52.616Z,6.01
2023-03-26T19:02:58.106Z,5.95
2023-03-26T19:06:10.422Z,5.93
2023-03-26T19:09:46.043Z,6.02
2023-03-26T19:13:23.538Z,6.01
2023-03-26T19:17:21.245Z,5.65
2023-03-26T19:20:46.362Z,5.42
2023-03-26T19:24:19.762Z,5.20
2023-03-26T19:27:55.031Z,5.11
2023-03-26T19:31:38.850Z,5.03
2023-03-26T19:35:21.800Z,4.97
2023-03-26T19:39:12.167Z,4.98
2023-03-26T19:42:27.657Z,4.83
2023-03-26T19:46:06.402Z,4.87
2023-03-26T19:49:53.103Z,4.93
2023-03-26T19:53:28.527Z,5.00
2023-03-26T19:56:55.363Z,5.14
2023-03-26T20:00:36.485Z,5.26
2023-03-26T20:04:12.334Z,5.32
2023-03-26T20:07:52.022Z,5.37
2023-03-26T20:11:46.397Z,5.41
2023-03-26T20:15:22.620Z,5.47
2023-03-26T20:18:41.473Z,5.48
2023-03-26T20:22:23.625Z,5.48
2023-03-26T20:26:17.786Z,5.50
2023-03-26T20:29:36.574Z,5.51
2023-03-26T20:33:32.000Z,5.54
2023-03-26T20:36:57.127Z,5.58
2023-03-26T20:40:27.405Z,5.65
2023-03-26T20:44:26.214Z,5.73
2023-03-26T20:47:43.154Z,5.79
2023-03-26T20:51:20.502Z,5.81
2023-03-26T20:55:21.498Z,5.84
2023-03-26T20:58:35.971Z,5.83
2023-03-26T21:02:13.908Z,5.76
2023-03-26T21:05:52.579Z,5.62
2023-03-26T21:09:35.480Z,5.55
2023-03-26T21:13:12.941Z,5.60
2023-03-26T21:16:47.327Z,5.58
2023-03-26T21:20:23.818Z,5.52
2023-03-26T21:24:43.209Z,5.55
2023-03-26T21:28:17.362Z,5.61
2023-03-26T21:31:24.869Z,5.65
2023-03-26T21:35:05.202Z,5.60
2023-03-26T21:39:00.615Z,5.55
2023-03-26T21:42:18.894Z,5.50
2023-03-26T21:46:14.453Z,5.51
2023-03-26T21:49:32.958Z,5.58
2023-03-26T21:53:29.778Z,5.65
2023-03-26T21:57:21.205Z,5.72
2023-03-26T22:00:37.154Z,5.74
2023-03-26T22:04:26.572Z,5.70
2023-03-26T22:07:59.661Z,5.68
2023-03-26T22:11:18.743Z,5.73
2023-03-26T22:15:17.560Z,5.68
2023-03-26T22:18:34.431Z,5.68
2023-03-26T22:22:12.488Z,5.68
2023-03-26T22:26:08.252Z,5.66
2023-03-26T22:29:45.938Z,5.68
2023-03-26T22:33:05.269Z,5.77
2023-03-26T22:37:01.889Z,5.78
2023-03-26T22:40:20.572Z,5.63
2023-03-26T22:44:01.521Z,5.55
2023-03-26T22:47:35.629Z,5.61
2023-03-26T22:51:13.307Z,5.69
2023-03-26T22:54:50.682Z,5.72
2023-03-26T22:58:29.234Z,5.68
2023-03-26T23:02:09.810Z,5.70
2023-03-26T23:05:44.223Z,5.70
2023-03-26T23:09:22.706Z,5.77
2023-03-26T23:13:00.806Z,5.73
2023-03-26T23:16:38.728Z,5.72
2023-03-26T23:20:15.269Z,5.68
2023-03-26T23:23:52.414Z,5.71
2023-03-26T23:27:30.237Z,5.70
2023-03-26T23:31:12.484Z,5.71
2023-03-26T23:34:52.276Z,5.67
2023-03-26T23:38:24.688Z,5.70
2023-03-26T23:42:00.757Z,5.69
2023-03-26T23:45:58.877Z,5.73
2023-03-26T23:49:16.819Z,5.63
2023-03-26T23:52:54.127Z,5.60
2023-03-26T23:56:50.948Z,5.56
